Time;durP1;ratioP1;P1;durP2;ratioP2;P2;SDS_P1;SDS_P2;PMS_P1;PMS_P2;Temp;Humidity;BMP_temperature;BMP_pressure;BME280_temperature;BME280_humidity;BME280_pressure;Samples;Min_cycle;Max_cycle;Signal;HPM_P1;HPM_P2
2022/02/21 00:01:52;;;;;;;0.37;0.37;;;9.30;99.90;;;;;;5013394;28;20205;-57
2022/02/21 00:04:18;;;;;;;0.50;0.40;;;;;;;;;;5013660;28;20169;-54
2022/02/21 00:06:44;;;;;;;1.50;0.30;;;;;;;;;;5013766;28;20177;-53
2022/02/21 00:09:14;;;;;;;0.50;0.50;;;9.30;99.90;;;;;;5013204;28;20168;-50
2022/02/21 00:11:40;;;;;;;0.47;0.47;;;9.20;99.90;;;;;;5013481;28;20264;-55
2022/02/21 00:14:06;;;;;;;0.40;0.40;;;9.20;99.90;;;;;;5013356;28;20173;-54
2022/02/21 00:16:32;;;;;;;1.13;0.50;;;9.20;99.90;;;;;;5013126;28;20199;-54
2022/02/21 00:18:58;;;;;;;0.50;0.50;;;11.20;99.90;;;;;;5011867;28;20185;-53
2022/02/21 00:21:24;;;;;;;0.50;0.33;;;9.20;99.90;;;;;;5013201;28;20547;-58
2022/02/21 00:23:50;;;;;;;0.83;0.30;;;9.20;99.90;;;;;;5013271;28;20172;-58
2022/02/21 00:26:18;;;;;;;1.13;0.33;;;9.20;99.90;;;;;;5012926;28;20181;-53
2022/02/21 00:28:46;;;;;;;0.30;0.30;;;9.20;99.90;;;;;;5013081;28;20181;-55
2022/02/21 00:31:12;;;;;;;0.50;0.50;;;9.20;99.90;;;;;;5012816;28;20662;-51
2022/02/21 00:33:38;;;;;;;0.43;0.30;;;9.30;99.90;;;;;;5012867;28;20172;-57
2022/02/21 00:36:04;;;;;;;0.33;0.33;;;9.40;99.90;;;;;;5012832;28;20200;-54
2022/02/21 00:38:30;;;;;;;0.30;0.30;;;9.40;99.90;;;;;;5012744;28;20252;-55
2022/02/21 00:40:56;;;;;;;0.30;0.30;;;9.40;99.90;;;;;;5012944;28;20619;-54
2022/02/21 00:43:21;;;;;;;0.67;0.60;;;9.40;99.90;;;;;;5012823;28;20542;-58
2022/02/21 00:45:47;;;;;;;0.30;0.30;;;9.40;99.90;;;;;;5012637;28;20657;-52
2022/02/21 00:48:12;;;;;;;0.33;0.33;;;9.40;99.90;;;;;;5012624;28;20172;-56
2022/02/21 00:50:38;;;;;;;0.97;0.40;;;9.40;99.90;;;;;;5012443;28;20315;-55
2022/02/21 00:53:04;;;;;;;0.43;0.33;;;9.40;99.90;;;;;;5012754;28;20634;-54
2022/02/21 00:55:30;;;;;;;0.40;0.33;;;9.50;99.90;;;;;;5012389;28;20196;-55
2022/02/21 00:57:56;;;;;;;0.40;0.40;;;9.60;99.90;;;;;;5012548;28;20168;-56
2022/02/21 01:00:22;;;;;;;0.20;0.20;;;9.50;99.90;;;;;;5012423;28;20192;-53
2022/02/21 01:02:48;;;;;;;0.57;0.57;;;9.60;99.90;;;;;;5012526;28;20550;-57
2022/02/21 01:05:14;;;;;;;0.60;0.60;;;;;;;;;;5012458;28;20172;-56
2022/02/21 01:07:40;;;;;;;0.40;0.40;;;9.60;99.90;;;;;;5010558;28;20176;-54
2022/02/21 01:10:06;;;;;;;0.53;0.50;;;9.70;99.90;;;;;;5011951;28;20196;-56
2022/02/21 01:12:32;;;;;;;0.87;0.47;;;9.80;99.90;;;;;;5012501;28;20172;-54
2022/02/21 01:14:58;;;;;;;1.03;0.40;;;9.70;99.90;;;;;;5012166;28;20187;-54
2022/02/21 01:17:24;;;;;;;1.17;0.70;;;;;;;;;;5012328;28;20211;-54
2022/02/21 01:19:50;;;;;;;1.47;0.43;;;9.70;99.90;;;;;;5012123;28;20188;-53
2022/02/21 01:22:16;;;;;;;0.40;0.37;;;9.70;99.90;;;;;;5012218;28;20238;-54
2022/02/21 01:24:42;;;;;;;0.70;0.57;;;9.80;99.90;;;;;;5012177;28;20589;-52
2022/02/21 01:27:07;;;;;;;1.60;0.50;;;9.80;99.90;;;;;;5012354;28;20229;-56
2022/02/21 01:29:33;;;;;;;0.40;0.40;;;9.90;99.90;;;;;;5011871;28;20197;-56
2022/02/21 01:31:59;;;;;;;1.33;0.77;;;;;;;;;;5012163;28;20187;-55
2022/02/21 01:34:25;;;;;;;1.73;0.40;;;10.00;99.90;;;;;;5012123;28;20176;-53
2022/02/21 01:36:52;;;;;;;2.33;0.40;;;9.90;99.90;;;;;;5011952;28;20203;-54
2022/02/21 01:39:18;;;;;;;0.93;0.60;;;9.90;99.90;;;;;;5011917;28;20211;-53
2022/02/21 01:41:43;;;;;;;1.27;0.40;;;10.00;99.90;;;;;;5012138;28;20581;-53
2022/02/21 01:44:11;;;;;;;1.17;0.40;;;9.90;99.90;;;;;;5011931;28;20223;-58
2022/02/21 01:46:38;;;;;;;0.73;0.50;;;9.90;99.90;;;;;;5015133;28;20176;-56
2022/02/21 01:49:06;;;;;;;1.03;0.50;;;9.70;99.90;;;;;;5015911;28;20186;-53
2022/02/21 01:51:33;;;;;;;0.90;0.50;;;9.90;99.90;;;;;;5016087;28;20589;-58
2022/02/21 01:54:00;;;;;;;1.83;0.60;;;9.90;99.90;;;;;;5016005;28;20741;-57
2022/02/21 01:56:26;;;;;;;0.83;0.50;;;9.80;99.90;;;;;;5015799;28;20196;-55
2022/02/21 01:58:52;;;;;;;1.80;0.60;;;9.80;99.90;;;;;;5015778;28;20617;-57
2022/02/21 02:01:18;;;;;;;0.60;0.40;;;9.80;99.90;;;;;;5015727;28;20188;-57
2022/02/21 02:03:43;;;;;;;1.17;0.50;;;9.80;99.90;;;;;;5015848;28;20187;-54
2022/02/21 02:06:10;;;;;;;1.07;0.50;;;9.90;99.90;;;;;;5014554;28;20176;-55
2022/02/21 02:08:36;;;;;;;1.30;0.93;;;12.30;99.90;;;;;;5015588;28;20558;-55
2022/02/21 02:11:01;;;;;;;1.70;0.30;;;9.90;99.90;;;;;;5015586;28;20206;-54
2022/02/21 02:13:28;;;;;;;0.70;0.40;;;9.90;99.90;;;;;;5014424;28;20184;-53
2022/02/21 02:15:54;;;;;;;0.70;0.63;;;9.80;99.90;;;;;;5015360;28;20215;-56
2022/02/21 02:18:21;;;;;;;1.70;0.63;;;9.80;99.90;;;;;;5015447;28;20173;-52
2022/02/21 02:20:47;;;;;;;0.53;0.50;;;12.70;99.90;;;;;;5015394;28;20204;-56
2022/02/21 02:23:13;;;;;;;0.60;0.40;;;;;;;;;;5015480;28;20231;-58
2022/02/21 02:25:39;;;;;;;0.43;0.43;;;9.90;99.90;;;;;;5015216;28;20258;-56
2022/02/21 02:28:05;;;;;;;0.40;0.40;;;9.90;99.90;;;;;;5015307;28;20654;-57
2022/02/21 02:30:31;;;;;;;1.27;0.60;;;9.90;99.90;;;;;;5015296;28;20207;-58
2022/02/21 02:32:56;;;;;;;0.60;0.23;;;9.90;99.90;;;;;;5015209;28;20638;-53
2022/02/21 02:35:23;;;;;;;0.87;0.67;;;9.80;99.90;;;;;;5015107;28;20180;-57
2022/02/21 02:37:48;;;;;;;0.47;0.47;;;9.80;99.90;;;;;;5015314;28;20569;-59
2022/02/21 02:40:15;;;;;;;1.17;0.50;;;9.80;99.90;;;;;;5014906;28;20250;-53
2022/02/21 02:42:41;;;;;;;0.60;0.30;;;9.80;99.90;;;;;;5015033;28;20222;-54
2022/02/21 02:45:07;;;;;;;2.10;0.70;;;9.80;99.90;;;;;;5014986;28;20184;-57
2022/02/21 02:47:32;;;;;;;0.60;0.60;;;9.80;99.90;;;;;;5015039;28;20165;-57
2022/02/21 02:49:58;;;;;;;1.90;0.50;;;9.80;99.90;;;;;;5014642;28;20219;-58
2022/02/21 02:52:23;;;;;;;0.43;0.40;;;9.80;99.90;;;;;;5014894;28;20176;-55
2022/02/21 02:54:49;;;;;;;1.47;0.70;;;9.80;99.90;;;;;;5014799;28;20669;-54
2022/02/21 02:57:14;;;;;;;0.37;0.37;;;9.80;99.90;;;;;;5014817;28;20235;-52
2022/02/21 02:59:40;;;;;;;0.77;0.63;;;9.80;99.90;;;;;;5014570;28;20192;-55
2022/02/21 03:02:06;;;;;;;1.23;0.60;;;9.90;99.90;;;;;;5014731;28;20196;-56
2022/02/21 03:04:31;;;;;;;0.30;0.30;;;9.80;99.90;;;;;;5014630;28;20164;-57
2022/02/21 03:06:58;;;;;;;2.10;0.50;;;9.80;99.90;;;;;;5014772;28;20722;-54
2022/02/21 03:09:25;;;;;;;0.50;0.50;;;9.80;99.90;;;;;;5014311;28;20192;-58
2022/02/21 03:11:51;;;;;;;0.87;0.50;;;9.80;99.90;;;;;;5014672;28;20227;-56
2022/02/21 03:14:16;;;;;;;0.50;0.50;;;9.80;99.90;;;;;;5014586;28;20180;-56
2022/02/21 03:16:42;;;;;;;0.97;0.60;;;9.90;99.90;;;;;;5014330;28;20196;-58
2022/02/21 03:19:08;;;;;;;1.00;0.57;;;9.90;99.90;;;;;;5014198;28;20164;-53
2022/02/21 03:21:34;;;;;;;2.00;0.90;;;9.80;99.90;;;;;;5014435;28;20175;-54
2022/02/21 03:24:00;;;;;;;1.13;0.57;;;9.80;99.90;;;;;;5013648;28;20172;-54
2022/02/21 03:26:25;;;;;;;1.80;0.90;;;9.80;99.90;;;;;;5013972;28;20191;-55
2022/02/21 03:28:51;;;;;;;2.73;0.63;;;9.80;99.90;;;;;;5014075;28;20714;-57
2022/02/21 03:31:16;;;;;;;1.97;0.57;;;9.80;99.90;;;;;;5014115;28;20569;-56
2022/02/21 03:33:42;;;;;;;0.57;0.40;;;9.90;99.90;;;;;;5014238;28;20186;-57
2022/02/21 03:36:08;;;;;;;1.73;0.83;;;9.80;99.90;;;;;;5013994;28;20192;-57
2022/02/21 03:38:34;;;;;;;0.80;0.50;;;9.90;99.90;;;;;;5013892;28;20177;-58
2022/02/21 03:40:59;;;;;;;1.20;0.73;;;9.90;99.90;;;;;;5013934;28;20263;-59
2022/02/21 03:43:25;;;;;;;0.77;0.50;;;9.90;99.90;;;;;;5014099;28;20832;-58
2022/02/21 03:45:51;;;;;;;1.87;0.67;;;9.90;99.90;;;;;;5013826;28;20255;-56
2022/02/21 03:48:16;;;;;;;2.90;0.60;;;10.00;99.90;;;;;;5013688;28;20184;-56
2022/02/21 03:50:43;;;;;;;0.90;0.70;;;9.90;99.90;;;;;;5013690;28;20212;-58
2022/02/21 03:53:09;;;;;;;1.93;0.80;;;10.00;99.90;;;;;;5013808;28;20179;-58
2022/02/21 03:55:34;;;;;;;2.57;0.80;;;10.00;99.90;;;;;;5013623;28;20628;-55
2022/02/21 03:58:00;;;;;;;0.57;0.57;;;9.90;99.90;;;;;;5013555;28;20176;-55
2022/02/21 04:00:25;;;;;;;0.83;0.50;;;10.00;99.90;;;;;;5013571;28;20192;-57
2022/02/21 04:02:52;;;;;;;0.63;0.50;;;10.10;99.90;;;;;;5013776;28;20197;-56
2022/02/21 04:05:18;;;;;;;1.40;0.93;;;10.10;99.90;;;;;;5013519;28;20252;-56
2022/02/21 04:07:44;;;;;;;2.63;0.80;;;10.10;99.90;;;;;;5012964;28;20255;-57
2022/02/21 04:10:12;;;;;;;0.93;0.53;;;10.00;99.90;;;;;;5013168;28;20196;-54
2022/02/21 04:12:38;;;;;;;1.90;0.53;;;10.10;99.90;;;;;;5013531;28;20252;-54
2022/02/21 04:15:05;;;;;;;0.50;0.50;;;10.10;99.90;;;;;;5013289;28;20639;-53
2022/02/21 04:17:42;;;;;;;1.00;0.40;;;10.10;99.90;;;;;;5013180;28;20250;-54
2022/02/21 04:20:10;;;;;;;1.10;0.60;;;10.10;99.90;;;;;;5013080;28;20188;-54
2022/02/21 04:22:36;;;;;;;1.10;0.53;;;10.20;99.90;;;;;;5013234;28;20788;-54
2022/02/21 04:25:04;;;;;;;1.97;0.70;;;10.20;99.90;;;;;;5013130;28;20207;-54
2022/02/21 04:27:29;;;;;;;0.30;0.30;;;10.20;99.90;;;;;;5013236;28;20197;-54
2022/02/21 04:29:55;;;;;;;2.70;0.90;;;10.20;99.90;;;;;;5012780;28;20631;-58
2022/02/21 04:32:20;;;;;;;0.77;0.50;;;10.20;99.90;;;;;;5013089;28;20191;-55
2022/02/21 04:34:46;;;;;;;2.03;0.50;;;10.30;99.90;;;;;;5012900;28;20176;-55
2022/02/21 04:37:11;;;;;;;0.87;0.50;;;10.30;99.90;;;;;;5012887;28;20196;-58
2022/02/21 04:39:37;;;;;;;0.90;0.60;;;10.30;99.90;;;;;;5012710;28;20577;-55
2022/02/21 04:42:03;;;;;;;0.90;0.60;;;10.30;99.90;;;;;;5012963;28;20187;-56
2022/02/21 04:44:28;;;;;;;0.40;0.40;;;10.30;99.90;;;;;;5012835;28;20255;-56
2022/02/21 04:46:55;;;;;;;0.77;0.63;;;10.30;99.90;;;;;;5012903;28;20531;-58
2022/02/21 04:51:48;;;;;;;0.77;0.50;;;10.30;99.90;;;;;;5029217;28;20204;-55
2022/02/21 04:54:14;;;;;;;1.13;0.57;;;10.30;99.90;;;;;;5028972;28;20560;-56
2022/02/21 04:56:39;;;;;;;0.80;0.50;;;10.20;99.90;;;;;;5030870;28;20572;-58
2022/02/21 04:59:05;;;;;;;0.77;0.50;;;10.20;99.90;;;;;;5031861;28;20171;-56
2022/02/21 05:01:30;;;;;;;0.30;0.30;;;10.30;99.90;;;;;;5012459;28;20196;-52
2022/02/21 05:03:56;;;;;;;0.70;0.53;;;10.30;99.90;;;;;;5012305;28;20214;-54
2022/02/21 05:06:22;;;;;;;2.77;0.50;;;10.30;99.90;;;;;;5012338;28;20653;-58
2022/02/21 05:08:47;;;;;;;1.80;0.63;;;10.30;99.90;;;;;;5012277;28;20177;-59
2022/02/21 05:11:13;;;;;;;2.33;0.53;;;13.20;99.90;;;;;;5011376;28;20580;-55
2022/02/21 05:13:39;;;;;;;0.67;0.60;;;10.30;99.90;;;;;;5012280;28;20682;-56
2022/02/21 05:16:06;;;;;;;0.77;0.50;;;10.30;99.90;;;;;;5012150;28;20542;-58
2022/02/21 05:18:31;;;;;;;5.83;0.70;;;10.30;99.90;;;;;;5012129;28;20160;-52
2022/02/21 05:20:57;;;;;;;0.60;0.43;;;10.30;99.90;;;;;;5011391;28;20196;-56
2022/02/21 05:23:22;;;;;;;0.70;0.60;;;10.40;99.90;;;;;;5012331;28;20176;-59
2022/02/21 05:25:48;;;;;;;1.53;0.70;;;10.40;99.90;;;;;;5012093;28;20175;-58
2022/02/21 05:28:13;;;;;;;1.47;0.60;;;10.40;99.90;;;;;;5013945;28;20219;-53
2022/02/21 05:30:39;;;;;;;0.97;0.50;;;10.40;99.90;;;;;;5012071;28;20253;-57
2022/02/21 05:33:05;;;;;;;0.70;0.60;;;10.40;99.90;;;;;;5012136;28;20672;-56
2022/02/21 05:35:30;;;;;;;0.53;0.50;;;10.40;99.90;;;;;;5011862;28;20172;-56
2022/02/21 05:37:56;;;;;;;1.10;0.70;;;10.40;99.90;;;;;;5012056;28;20180;-54
2022/02/21 05:40:21;;;;;;;0.73;0.57;;;10.40;99.90;;;;;;5011941;28;20193;-56
2022/02/21 05:42:47;;;;;;;0.80;0.60;;;10.40;99.90;;;;;;5012034;28;20255;-57
2022/02/21 05:45:13;;;;;;;1.23;0.47;;;10.40;99.90;;;;;;5012017;28;20172;-55
2022/02/21 05:47:38;;;;;;;1.50;0.57;;;10.40;99.90;;;;;;5011928;28;20187;-54
2022/02/21 05:50:05;;;;;;;1.97;0.50;;;10.40;99.90;;;;;;5011664;28;20250;-58
2022/02/21 05:52:30;;;;;;;0.80;0.60;;;10.40;99.90;;;;;;5012011;28;20183;-56
2022/02/21 05:54:56;;;;;;;1.43;0.60;;;10.40;99.90;;;;;;5011923;28;20176;-55
2022/02/21 05:57:21;;;;;;;2.00;0.50;;;10.40;99.90;;;;;;5011709;28;20196;-55
2022/02/21 05:59:47;;;;;;;0.67;0.43;;;10.40;99.90;;;;;;5011656;28;20196;-58
2022/02/21 06:02:12;;;;;;;3.60;0.43;;;10.40;99.90;;;;;;5011481;28;20211;-55
2022/02/21 06:04:38;;;;;;;0.70;0.40;;;10.40;99.90;;;;;;5011653;28;20188;-54
2022/02/21 06:07:04;;;;;;;2.03;0.30;;;10.40;99.90;;;;;;5011966;28;20696;-55
2022/02/21 06:09:29;;;;;;;0.60;0.57;;;10.50;99.90;;;;;;5011698;28;20164;-56
2022/02/21 06:11:55;;;;;;;0.93;0.40;;;10.40;99.90;;;;;;5011688;28;20523;-55
2022/02/21 06:14:21;;;;;;;0.97;0.50;;;10.40;99.90;;;;;;5011825;28;20183;-54
2022/02/21 06:16:46;;;;;;;0.67;0.20;;;10.40;99.90;;;;;;5011500;28;20200;-55
2022/02/21 06:19:12;;;;;;;0.50;0.40;;;10.30;99.90;;;;;;5011619;28;20184;-58
2022/02/21 06:21:37;;;;;;;1.73;0.60;;;10.30;99.90;;;;;;5011510;28;20228;-56
2022/02/21 06:24:03;;;;;;;0.20;0.20;;;10.30;99.90;;;;;;5011736;28;20177;-55
2022/02/21 06:26:29;;;;;;;0.67;0.40;;;10.30;99.90;;;;;;5011344;28;20622;-58
2022/02/21 06:28:55;;;;;;;1.30;0.43;;;;;;;;;;5011508;28;20192;-56
2022/02/21 06:31:21;;;;;;;0.67;0.30;;;10.10;99.90;;;;;;5012350;28;20200;-53
2022/02/21 06:33:47;;;;;;;5.33;1.00;;;;;;;;;;5004824;28;20236;-55
2022/02/21 06:36:13;;;;;;;3.80;0.70;;;9.90;99.90;;;;;;5012923;28;20212;-58
2022/02/21 06:38:40;;;;;;;2.13;0.40;;;9.10;99.90;;;;;;5010496;28;20177;-52
2022/02/21 06:41:05;;;;;;;2.20;0.40;;;8.30;99.90;;;;;;4995385;28;20674;-54
2022/02/21 06:43:31;;;;;;;0.40;0.40;;;7.50;99.90;;;;;;5003845;28;20207;-52
2022/02/21 06:45:57;;;;;;;0.53;0.53;;;7.00;99.90;;;;;;5010639;28;20192;-52
2022/02/21 06:48:24;;;;;;;1.63;0.80;;;6.20;99.90;;;;;;5013535;28;20258;-54
2022/02/21 06:50:49;;;;;;;1.07;0.50;;;5.90;99.90;;;;;;4997080;28;20260;-56
2022/02/21 06:53:15;;;;;;;0.90;0.67;;;5.60;99.90;;;;;;4995465;28;20177;-53
2022/02/21 06:55:40;;;;;;;4.47;2.93;;;5.30;99.90;;;;;;4994789;28;20204;-52
2022/02/21 06:58:10;;;;;;;2.03;0.90;;;5.20;99.90;;;;;;4995038;28;20181;-55
2022/02/21 07:00:36;;;;;;;2.30;1.33;;;5.20;99.90;;;;;;5009149;28;20219;-56
2022/02/21 07:03:01;;;;;;;0.93;0.73;;;5.20;99.90;;;;;;5014325;28;20188;-50
2022/02/21 07:05:27;;;;;;;0.70;0.70;;;5.20;99.90;;;;;;5014228;28;20189;-57
2022/02/21 07:07:52;;;;;;;1.77;0.83;;;5.40;99.90;;;;;;5008202;28;20181;-56
2022/02/21 07:10:18;;;;;;;0.70;0.70;;;5.40;99.90;;;;;;5005834;28;20200;-51
2022/02/21 07:12:44;;;;;;;0.80;0.70;;;5.30;99.90;;;;;;5000413;28;20181;-53
2022/02/21 07:15:09;;;;;;;0.67;0.60;;;5.10;99.90;;;;;;4994483;28;20173;-56
2022/02/21 07:17:42;;;;;;;1.67;0.80;;;4.90;99.90;;;;;;4993769;28;20284;-55
2022/02/21 07:20:12;;;;;;;1.73;0.80;;;4.70;99.90;;;;;;4994383;28;20193;-52
2022/02/21 07:22:44;;;;;;;1.33;0.73;;;4.60;99.90;;;;;;5014141;28;20169;-57
2022/02/21 07:25:11;;;;;;;0.90;0.70;;;4.60;99.90;;;;;;5008256;28;20292;-52
2022/02/21 07:27:45;;;;;;;1.00;0.90;;;4.60;99.90;;;;;;4994568;28;20586;-55
2022/02/21 07:30:12;;;;;;;0.93;0.80;;;4.60;99.90;;;;;;4988226;28;20211;-58
2022/02/21 07:32:38;;;;;;;1.70;0.80;;;4.50;99.90;;;;;;4993147;28;20639;-52
2022/02/21 07:35:04;;;;;;;1.27;0.70;;;4.40;99.90;;;;;;4994061;28;20277;-55
2022/02/21 07:37:30;;;;;;;3.03;0.70;;;4.30;99.90;;;;;;4994344;28;20236;-54
2022/02/21 07:39:56;;;;;;;2.77;0.80;;;4.20;99.90;;;;;;4994076;28;20275;-53
2022/02/21 07:42:22;;;;;;;2.30;1.03;;;4.10;99.90;;;;;;4993912;28;20631;-56
2022/02/21 07:44:50;;;;;;;2.10;1.00;;;4.20;99.90;;;;;;4993515;28;20192;-54
2022/02/21 07:47:16;;;;;;;2.37;1.07;;;4.20;99.90;;;;;;4994302;28;20169;-56
2022/02/21 07:49:42;;;;;;;3.50;0.93;;;4.20;99.90;;;;;;4994021;28;20216;-58
2022/02/21 07:52:08;;;;;;;2.70;1.00;;;4.30;99.90;;;;;;4994305;28;20540;-54
2022/02/21 07:54:33;;;;;;;3.30;0.87;;;4.40;99.90;;;;;;4993972;28;20181;-53
2022/02/21 07:57:01;;;;;;;1.80;0.80;;;4.40;99.90;;;;;;4994073;28;20208;-59
2022/02/21 07:59:27;;;;;;;1.57;0.90;;;4.40;99.90;;;;;;4994019;28;20169;-55
2022/02/21 08:01:53;;;;;;;2.93;1.00;;;4.40;99.90;;;;;;4993934;28;20173;-57
2022/02/21 08:04:19;;;;;;;2.90;1.07;;;4.50;99.90;;;;;;4994086;28;20264;-55
2022/02/21 08:06:46;;;;;;;1.07;0.80;;;4.50;99.90;;;;;;4993962;28;20192;-55
2022/02/21 08:09:12;;;;;;;1.40;0.90;;;4.50;99.90;;;;;;4993835;28;20195;-60
2022/02/21 08:11:38;;;;;;;2.33;1.20;;;;;;;;;;4993402;28;20742;-57
2022/02/21 08:14:04;;;;;;;2.13;1.00;;;4.60;99.90;;;;;;4993689;28;20185;-57
2022/02/21 08:16:29;;;;;;;3.03;1.10;;;4.70;99.90;;;;;;4993605;28;20208;-59
2022/02/21 08:18:55;;;;;;;1.83;0.93;;;4.70;99.90;;;;;;4993249;28;20189;-58
2022/02/21 08:21:21;;;;;;;1.60;0.93;;;4.80;99.90;;;;;;4992365;28;20206;-55
2022/02/21 08:23:46;;;;;;;2.23;0.80;;;4.70;99.90;;;;;;4993693;28;20189;-57
2022/02/21 08:26:12;;;;;;;3.20;1.33;;;4.60;99.90;;;;;;4993376;28;20209;-58
2022/02/21 08:28:38;;;;;;;3.90;1.00;;;4.50;99.90;;;;;;4993481;28;20183;-56
2022/02/21 08:31:03;;;;;;;2.30;0.90;;;4.40;99.90;;;;;;4993511;28;20201;-55
2022/02/21 08:33:29;;;;;;;3.33;1.23;;;4.30;99.90;;;;;;4993333;28;20252;-54
2022/02/21 08:35:54;;;;;;;2.00;1.20;;;4.30;99.90;;;;;;5006998;28;20215;-52
2022/02/21 08:38:20;;;;;;;1.70;1.00;;;4.30;99.90;;;;;;5012720;28;20185;-53
2022/02/21 08:40:46;;;;;;;1.07;0.80;;;4.30;99.90;;;;;;5012552;28;20196;-50
2022/02/21 08:43:12;;;;;;;1.60;1.30;;;4.30;99.90;;;;;;5012731;28;20176;-49
2022/02/21 08:45:38;;;;;;;3.40;1.40;;;4.20;99.90;;;;;;5012605;28;20176;-50
2022/02/21 08:48:04;;;;;;;1.53;1.00;;;4.10;99.90;;;;;;5012648;28;20208;-54
2022/02/21 08:50:29;;;;;;;1.60;1.10;;;4.10;99.90;;;;;;5012476;28;20215;-52
2022/02/21 08:52:55;;;;;;;2.53;1.20;;;4.10;99.90;;;;;;5012433;28;20650;-52
2022/02/21 08:55:20;;;;;;;1.57;1.00;;;4.40;99.90;;;;;;5012293;28;20168;-50
2022/02/21 08:57:46;;;;;;;4.20;1.23;;;4.60;99.90;;;;;;5012554;28;20335;-51
2022/02/21 09:00:13;;;;;;;3.97;1.73;;;4.80;99.90;;;;;;5011002;28;20207;-53
2022/02/21 09:02:39;;;;;;;2.20;1.27;;;5.00;99.90;;;;;;5012445;28;20545;-52
2022/02/21 09:05:05;;;;;;;4.73;1.63;;;5.30;99.90;;;;;;5012367;28;20177;-51
2022/02/21 09:07:31;;;;;;;2.03;1.20;;;5.50;99.90;;;;;;5011179;28;20180;-55
2022/02/21 09:09:57;;;;;;;2.73;1.20;;;5.60;99.90;;;;;;5012068;28;20543;-53
2022/02/21 09:12:22;;;;;;;2.63;1.00;;;5.40;99.90;;;;;;5012276;28;20188;-55
2022/02/21 09:14:50;;;;;;;2.07;1.10;;;5.10;99.90;;;;;;5012182;28;20499;-57
2022/02/21 09:17:16;;;;;;;2.63;1.10;;;5.10;99.90;;;;;;5012265;28;20215;-48
2022/02/21 09:19:41;;;;;;;3.67;1.40;;;4.90;99.90;;;;;;5011941;28;20251;-55
2022/02/21 09:22:07;;;;;;;2.30;1.20;;;5.10;99.90;;;;;;5012180;28;20184;-51
2022/02/21 09:24:33;;;;;;;3.30;1.40;;;5.20;99.90;;;;;;5011949;28;20183;-50
2022/02/21 09:26:58;;;;;;;3.50;1.27;;;5.00;99.90;;;;;;5011361;28;20219;-53
2022/02/21 09:29:24;;;;;;;2.93;1.20;;;4.80;99.90;;;;;;5003343;28;20228;-53
2022/02/21 09:31:50;;;;;;;2.23;1.00;;;5.20;99.90;;;;;;4992614;28;20181;-55
2022/02/21 09:34:16;;;;;;;3.90;1.47;;;5.20;99.90;;;;;;4991374;28;20177;-56
2022/02/21 09:36:41;;;;;;;3.03;1.20;;;5.10;99.90;;;;;;4992265;28;20270;-52
2022/02/21 09:39:07;;;;;;;4.87;1.50;;;5.10;99.90;;;;;;4992061;28;20173;-56
2022/02/21 09:41:33;;;;;;;2.27;1.07;;;5.40;99.90;;;;;;4992302;28;20287;-52
2022/02/21 09:43:58;;;;;;;3.70;1.60;;;5.30;99.90;;;;;;4992350;28;20177;-51
2022/02/21 09:46:29;;;;;;;4.00;1.20;;;5.50;99.90;;;;;;4992240;28;20650;-53
2022/02/21 09:48:57;;;;;;;1.77;1.50;;;5.30;99.90;;;;;;4992027;28;20184;-57
2022/02/21 09:51:23;;;;;;;6.17;1.90;;;5.70;99.90;;;;;;4992006;28;20649;-51
2022/02/21 09:53:49;;;;;;;4.67;1.60;;;5.70;99.90;;;;;;4992237;28;20209;-57
2022/02/21 09:56:14;;;;;;;3.43;1.50;;;5.60;99.90;;;;;;4992095;28;20208;-52
2022/02/21 09:58:40;;;;;;;2.80;1.20;;;;;;;;;;4992106;28;20236;-54
2022/02/21 10:01:07;;;;;;;4.23;1.60;;;;;;;;;;4992080;28;20280;-56
2022/02/21 10:03:41;;;;;;;3.43;1.40;;;5.70;99.90;;;;;;4992246;28;20252;-57
2022/02/21 10:06:15;;;;;;;4.77;1.37;;;5.80;99.90;;;;;;4992421;28;20524;-56
2022/02/21 10:09:10;;;;;;;3.13;1.43;;;5.80;99.90;;;;;;4995985;28;20209;-54
2022/02/21 10:11:40;;;;;;;4.23;1.60;;;5.60;99.90;;;;;;4995924;28;20200;-51
2022/02/21 10:14:18;;;;;;;3.37;1.43;;;6.10;99.90;;;;;;4995986;28;20180;-53
2022/02/21 10:16:48;;;;;;;5.03;1.80;;;6.30;99.90;;;;;;4995651;28;20216;-56
2022/02/21 10:19:22;;;;;;;3.40;1.20;;;6.10;99.90;;;;;;4995929;28;20176;-53
2022/02/21 10:22:01;;;;;;;5.70;1.70;;;6.10;99.90;;;;;;4995847;28;20177;-55
2022/02/21 10:24:48;;;;;;;4.60;1.70;;;5.90;99.90;;;;;;4995838;28;20533;-55
2022/02/21 10:27:29;;;;;;;5.00;1.73;;;5.90;99.90;;;;;;4995670;28;20192;-53
2022/02/21 10:30:01;;;;;;;3.90;1.53;;;5.60;99.90;;;;;;5007924;28;20200;-52
2022/02/21 10:32:29;;;;;;;3.67;1.47;;;5.80;99.90;;;;;;5015344;28;20203;-56
2022/02/21 10:35:09;;;;;;;4.67;1.40;;;5.80;99.90;;;;;;5015026;28;20563;-55
2022/02/21 10:37:44;;;;;;;5.00;1.87;;;5.80;99.90;;;;;;5015479;28;20736;-57
2022/02/21 10:40:13;;;;;;;5.23;1.63;;;5.80;99.90;;;;;;5013437;28;20206;-52
2022/02/21 10:42:41;;;;;;;4.17;1.30;;;6.20;99.90;;;;;;5015030;28;20227;-55
2022/02/21 10:45:15;;;;;;;4.23;1.40;;;6.10;99.90;;;;;;5013393;28;20188;-54
2022/02/21 10:47:59;;;;;;;2.80;1.10;;;5.70;99.90;;;;;;5011559;28;20194;-50
2022/02/21 10:50:24;;;;;;;4.00;1.63;;;5.80;99.90;;;;;;5014062;28;20596;-49
2022/02/21 10:52:50;;;;;;;5.10;1.70;;;;;;;;;;5014606;28;20259;-55
2022/02/21 10:55:16;;;;;;;2.23;1.30;;;5.50;99.90;;;;;;5014511;28;20185;-52
2022/02/21 10:57:43;;;;;;;3.13;1.00;;;5.90;99.90;;;;;;5014130;28;20235;-49
2022/02/21 11:00:10;;;;;;;2.67;1.27;;;5.50;99.90;;;;;;5093786;22;20232;-59
2022/02/21 11:02:40;;;;;;;3.33;1.40;;;5.60;99.90;;;;;;5013162;28;20230;-58
2022/02/21 11:05:09;;;;;;;2.97;1.47;;;5.60;99.90;;;;;;5012792;28;20173;-56
2022/02/21 11:07:36;;;;;;;3.23;1.30;;;5.50;99.90;;;;;;5005939;28;20184;-60
2022/02/21 11:10:04;;;;;;;5.57;1.63;;;5.50;99.90;;;;;;5014011;28;20269;-58
2022/02/21 11:12:34;;;;;;;3.17;1.30;;;5.60;99.90;;;;;;5014190;28;20180;-55
2022/02/21 11:15:01;;;;;;;3.37;1.30;;;5.70;99.90;;;;;;5014075;28;20173;-55
2022/02/21 11:17:28;;;;;;;3.63;1.37;;;6.00;99.90;;;;;;5013058;28;20299;-53
2022/02/21 11:19:53;;;;;;;3.87;1.37;;;6.50;99.90;;;;;;5012539;28;20200;-61
2022/02/21 11:22:19;;;;;;;4.63;1.53;;;6.90;99.90;;;;;;5014734;28;20538;-53
2022/02/21 11:24:57;;;;;;;4.73;1.60;;;6.80;99.90;;;;;;5014097;28;20177;-51
2022/02/21 11:27:46;;;;;;;4.37;1.30;;;6.80;99.90;;;;;;5014786;28;20250;-60
2022/02/21 11:30:18;;;;;;;3.73;1.03;;;7.60;99.90;;;;;;5014159;28;20738;-57
2022/02/21 11:33:05;;;;;;;4.87;1.40;;;7.70;99.90;;;;;;5014165;28;20181;-58
2022/02/21 11:35:31;;;;;;;3.37;1.50;;;7.20;99.90;;;;;;5013520;28;20191;-57
2022/02/21 11:38:15;;;;;;;2.87;1.30;;;7.00;99.90;;;;;;5013925;28;20176;-61
2022/02/21 11:40:51;;;;;;;2.80;1.03;;;7.00;99.90;;;;;;5013769;28;20184;-61
2022/02/21 11:43:37;;;;;;;3.93;1.60;;;7.00;99.90;;;;;;5013884;28;20160;-58
2022/02/21 11:46:12;;;;;;;1.87;0.87;;;7.10;99.90;;;;;;5013687;28;20242;-59
2022/02/21 11:48:52;;;;;;;4.67;1.67;;;8.00;99.90;;;;;;5013473;28;20584;-54
2022/02/21 11:51:47;;;;;;;4.43;1.33;;;8.50;99.90;;;;;;5013584;28;20177;-53
2022/02/21 11:54:13;;;;;;;6.40;1.47;;;10.00;99.90;;;;;;5008873;28;20243;-55
2022/02/21 11:56:47;;;;;;;4.43;1.10;;;10.80;99.60;;;;;;5013396;28;20593;-55
2022/02/21 11:59:25;;;;;;;3.17;1.50;;;11.10;97.90;;;;;;5013204;28;20211;-54
2022/02/21 12:02:02;;;;;;;1.60;1.10;;;10.60;97.30;;;;;;5013544;28;20638;-57
2022/02/21 12:04:44;;;;;;;2.50;1.17;;;9.90;98.40;;;;;;5013412;28;20781;-57
2022/02/21 12:07:32;;;;;;;2.70;1.20;;;10.60;98.90;;;;;;5013579;28;20246;-55
2022/02/21 12:10:21;;;;;;;3.43;1.17;;;11.70;97.40;;;;;;5012858;28;20206;-61
2022/02/21 12:13:21;;;;;;;4.27;1.20;;;12.20;95.10;;;;;;4993796;28;20175;-57
2022/02/21 12:16:03;;;;;;;2.37;1.37;;;11.40;96.60;;;;;;4895583;29;20275;-60
2022/02/21 12:18:37;;;;;;;3.37;1.60;;;10.80;96.40;;;;;;4895579;29;20275;-57
2022/02/21 12:21:28;;;;;;;3.63;1.60;;;9.80;98.10;;;;;;4895824;29;20223;-53
2022/02/21 12:24:00;;;;;;;4.10;1.40;;;8.70;98.30;;;;;;4895728;29;20654;-52
2022/02/21 12:26:36;;;;;;;3.27;1.37;;;8.50;99.60;;;;;;4895657;29;20982;-56
2022/02/21 12:29:11;;;;;;;5.83;1.80;;;8.40;99.30;;;;;;4895082;29;20199;-56
2022/02/21 12:31:41;;;;;;;6.57;1.67;;;8.10;99.60;;;;;;4895630;29;20180;-52
2022/02/21 12:34:07;;;;;;;5.80;1.80;;;7.60;99.90;;;;;;4895499;29;20185;-56
2022/02/21 12:36:41;;;;;;;5.60;1.40;;;7.80;99.90;;;;;;4895337;29;20204;-55
2022/02/21 12:39:08;;;;;;;4.50;1.27;;;7.80;99.90;;;;;;4895393;29;20204;-59
2022/02/21 12:41:37;;;;;;;3.90;1.30;;;8.20;99.90;;;;;;4895349;29;20263;-56
2022/02/21 12:44:10;;;;;;;4.03;1.13;;;8.80;99.50;;;;;;4895479;29;20181;-51
2022/02/21 12:46:46;;;;;;;4.47;1.33;;;8.70;99.80;;;;;;4895128;29;20192;-54
2022/02/21 12:49:24;;;;;;;4.43;1.50;;;8.50;99.70;;;;;;4895128;29;20204;-55
2022/02/21 12:52:11;;;;;;;2.47;1.27;;;7.70;99.90;;;;;;4931444;28;20184;-57
2022/02/21 12:54:48;;;;;;;3.53;1.50;;;7.40;99.90;;;;;;4993120;28;20176;-52
2022/02/21 12:57:14;;;;;;;4.07;1.50;;;7.30;99.90;;;;;;4993036;28;20574;-58
2022/02/21 12:59:39;;;;;;;2.83;1.20;;;7.20;99.90;;;;;;4992691;28;20220;-60
2022/02/21 13:02:08;;;;;;;2.23;1.10;;;7.60;99.90;;;;;;4992985;28;20173;-52
2022/02/21 13:04:35;;;;;;;3.57;1.27;;;7.90;99.90;;;;;;4992827;28;20272;-52